sensor_id;sensor_type;location;lat;lon;timestamp;P1;durP1;ratioP1;P2;durP2;ratioP2
23388;SDS011;11867;51.198;11.966;2023-02-08T00:00:07;96.03;;;40.35;;
23388;SDS011;11867;51.198;11.966;2023-02-08T00:01:10;98.60;;;42.25;;
23388;SDS011;11867;51.198;11.966;2023-02-08T00:02:16;100.10;;;41.67;;
23388;SDS011;11867;51.198;11.966;2023-02-08T00:03:18;92.28;;;41.75;;
23388;SDS011;11867;51.198;11.966;2023-02-08T00:04:22;98.88;;;42.50;;
23388;SDS011;11867;51.198;11.966;2023-02-08T00:05:26;99.55;;;42.75;;
23388;SDS011;11867;51.198;11.966;2023-02-08T00:06:29;104.50;;;43.75;;
23388;SDS011;11867;51.198;11.966;2023-02-08T00:07:31;99.18;;;41.63;;
23388;SDS011;11867;51.198;11.966;2023-02-08T00:08:33;96.85;;;42.90;;
23388;SDS011;11867;51.198;11.966;2023-02-08T00:09:36;105.18;;;42.28;;
23388;SDS011;11867;51.198;11.966;2023-02-08T00:10:39;98.47;;;42.25;;
23388;SDS011;11867;51.198;11.966;2023-02-08T00:11:41;103.35;;;42.80;;
23388;SDS011;11867;51.198;11.966;2023-02-08T00:12:43;97.22;;;41.58;;
23388;SDS011;11867;51.198;11.966;2023-02-08T00:13:45;95.30;;;41.28;;
23388;SDS011;11867;51.198;11.966;2023-02-08T00:14:48;99.18;;;43.13;;
23388;SDS011;11867;51.198;11.966;2023-02-08T00:15:50;94.10;;;41.65;;
23388;SDS011;11867;51.198;11.966;2023-02-08T00:16:54;100.65;;;41.50;;
23388;SDS011;11867;51.198;11.966;2023-02-08T00:17:57;93.65;;;41.63;;
23388;SDS011;11867;51.198;11.966;2023-02-08T00:19:00;92.63;;;40.95;;
23388;SDS011;11867;51.198;11.966;2023-02-08T00:20:02;96.60;;;42.45;;
23388;SDS011;11867;51.198;11.966;2023-02-08T00:21:06;96.10;;;41.60;;
23388;SDS011;11867;51.198;11.966;2023-02-08T00:22:09;92.22;;;40.38;;
23388;SDS011;11867;51.198;11.966;2023-02-08T00:23:12;89.97;;;41.55;;
23388;SDS011;11867;51.198;11.966;2023-02-08T00:24:14;90.30;;;41.47;;
23388;SDS011;11867;51.198;11.966;2023-02-08T00:25:17;88.50;;;41.40;;
23388;SDS011;11867;51.198;11.966;2023-02-08T00:26:19;95.82;;;41.00;;
23388;SDS011;11867;51.198;11.966;2023-02-08T00:27:22;96.20;;;40.75;;
23388;SDS011;11867;51.198;11.966;2023-02-08T00:28:23;94.30;;;41.88;;
23388;SDS011;11867;51.198;11.966;2023-02-08T00:29:26;89.57;;;40.80;;
23388;SDS011;11867;51.198;11.966;2023-02-08T00:30:28;89.07;;;41.08;;
23388;SDS011;11867;51.198;11.966;2023-02-08T00:31:31;93.85;;;41.92;;
23388;SDS011;11867;51.198;11.966;2023-02-08T00:32:33;96.13;;;41.53;;
23388;SDS011;11867;51.198;11.966;2023-02-08T00:33:37;96.22;;;42.28;;
23388;SDS011;11867;51.198;11.966;2023-02-08T00:34:40;97.00;;;41.55;;
23388;SDS011;11867;51.198;11.966;2023-02-08T00:35:41;98.45;;;41.70;;
23388;SDS011;11867;51.198;11.966;2023-02-08T00:36:44;87.10;;;40.58;;
23388;SDS011;11867;51.198;11.966;2023-02-08T00:37:46;91.07;;;39.72;;
23388;SDS011;11867;51.198;11.966;2023-02-08T00:38:48;91.32;;;40.65;;
23388;SDS011;11867;51.198;11.966;2023-02-08T00:39:50;91.13;;;42.78;;
23388;SDS011;11867;51.198;11.966;2023-02-08T00:40:53;96.13;;;42.17;;
23388;SDS011;11867;51.198;11.966;2023-02-08T00:41:55;91.05;;;42.53;;
23388;SDS011;11867;51.198;11.966;2023-02-08T00:42:58;97.95;;;41.85;;
23388;SDS011;11867;51.198;11.966;2023-02-08T00:43:59;90.55;;;41.35;;
23388;SDS011;11867;51.198;11.966;2023-02-08T00:45:03;89.82;;;40.72;;
23388;SDS011;11867;51.198;11.966;2023-02-08T00:46:05;95.70;;;42.17;;
23388;SDS011;11867;51.198;11.966;2023-02-08T00:47:08;93.25;;;42.63;;
23388;SDS011;11867;51.198;11.966;2023-02-08T00:48:10;88.93;;;40.95;;
23388;SDS011;11867;51.198;11.966;2023-02-08T00:49:14;89.90;;;41.13;;
23388;SDS011;11867;51.198;11.966;2023-02-08T00:50:16;89.97;;;40.25;;
23388;SDS011;11867;51.198;11.966;2023-02-08T00:51:19;93.00;;;41.15;;
23388;SDS011;11867;51.198;11.966;2023-02-08T00:52:20;85.00;;;40.10;;
23388;SDS011;11867;51.198;11.966;2023-02-08T00:53:23;90.07;;;40.67;;
23388;SDS011;11867;51.198;11.966;2023-02-08T00:54:25;85.88;;;39.88;;
23388;SDS011;11867;51.198;11.966;2023-02-08T00:55:28;87.78;;;40.65;;
23388;SDS011;11867;51.198;11.966;2023-02-08T00:56:30;90.32;;;41.28;;
23388;SDS011;11867;51.198;11.966;2023-02-08T00:57:33;86.72;;;40.83;;
23388;SDS011;11867;51.198;11.966;2023-02-08T00:58:36;88.53;;;40.28;;
23388;SDS011;11867;51.198;11.966;2023-02-08T00:59:39;91.85;;;41.47;;
23388;SDS011;11867;51.198;11.966;2023-02-08T01:00:40;88.88;;;40.28;;
23388;SDS011;11867;51.198;11.966;2023-02-08T01:01:43;91.40;;;41.80;;
23388;SDS011;11867;51.198;11.966;2023-02-08T01:02:45;97.18;;;42.38;;
23388;SDS011;11867;51.198;11.966;2023-02-08T01:03:48;96.38;;;42.47;;
23388;SDS011;11867;51.198;11.966;2023-02-08T01:04:51;99.50;;;43.47;;
23388;SDS011;11867;51.198;11.966;2023-02-08T01:05:58;92.00;;;41.75;;
23388;SDS011;11867;51.198;11.966;2023-02-08T01:07:01;85.00;;;40.90;;
23388;SDS011;11867;51.198;11.966;2023-02-08T01:08:03;95.30;;;43.05;;
23388;SDS011;11867;51.198;11.966;2023-02-08T01:09:08;98.55;;;43.15;;
23388;SDS011;11867;51.198;11.966;2023-02-08T01:10:10;92.63;;;41.97;;
23388;SDS011;11867;51.198;11.966;2023-02-08T01:11:14;101.85;;;44.40;;
23388;SDS011;11867;51.198;11.966;2023-02-08T01:12:18;96.45;;;44.03;;
23388;SDS011;11867;51.198;11.966;2023-02-08T01:13:20;96.55;;;43.53;;
23388;SDS011;11867;51.198;11.966;2023-02-08T01:14:23;101.60;;;42.67;;
23388;SDS011;11867;51.198;11.966;2023-02-08T01:15:25;100.40;;;41.92;;
23388;SDS011;11867;51.198;11.966;2023-02-08T01:16:29;95.15;;;41.63;;
23388;SDS011;11867;51.198;11.966;2023-02-08T01:17:32;97.88;;;43.75;;
23388;SDS011;11867;51.198;11.966;2023-02-08T01:18:35;96.43;;;42.58;;
23388;SDS011;11867;51.198;11.966;2023-02-08T01:19:37;91.97;;;43.30;;
23388;SDS011;11867;51.198;11.966;2023-02-08T01:20:44;97.15;;;41.95;;
23388;SDS011;11867;51.198;11.966;2023-02-08T01:21:46;100.65;;;44.22;;
23388;SDS011;11867;51.198;11.966;2023-02-08T01:22:49;97.22;;;41.75;;
23388;SDS011;11867;51.198;11.966;2023-02-08T01:23:51;101.78;;;43.72;;
23388;SDS011;11867;51.198;11.966;2023-02-08T01:24:54;101.78;;;42.15;;
23388;SDS011;11867;51.198;11.966;2023-02-08T01:25:55;98.60;;;43.38;;
23388;SDS011;11867;51.198;11.966;2023-02-08T01:26:58;102.38;;;43.17;;
23388;SDS011;11867;51.198;11.966;2023-02-08T01:28:01;100.10;;;43.38;;
23388;SDS011;11867;51.198;11.966;2023-02-08T01:29:03;94.55;;;43.15;;
23388;SDS011;11867;51.198;11.966;2023-02-08T01:30:06;95.78;;;42.63;;
23388;SDS011;11867;51.198;11.966;2023-02-08T01:31:10;100.95;;;42.67;;
23388;SDS011;11867;51.198;11.966;2023-02-08T01:32:14;94.80;;;42.53;;
23388;SDS011;11867;51.198;11.966;2023-02-08T01:33:17;91.03;;;42.03;;
23388;SDS011;11867;51.198;11.966;2023-02-08T01:34:19;102.05;;;43.55;;
23388;SDS011;11867;51.198;11.966;2023-02-08T01:35:22;93.30;;;41.47;;
23388;SDS011;11867;51.198;11.966;2023-02-08T01:36:28;94.75;;;42.65;;
23388;SDS011;11867;51.198;11.966;2023-02-08T01:37:32;89.88;;;40.08;;
23388;SDS011;11867;51.198;11.966;2023-02-08T01:38:37;93.28;;;40.90;;
23388;SDS011;11867;51.198;11.966;2023-02-08T01:39:40;97.72;;;42.53;;
23388;SDS011;11867;51.198;11.966;2023-02-08T01:40:42;91.15;;;40.70;;
23388;SDS011;11867;51.198;11.966;2023-02-08T01:41:44;93.82;;;41.47;;
23388;SDS011;11867;51.198;11.966;2023-02-08T01:42:47;95.65;;;43.20;;
23388;SDS011;11867;51.198;11.966;2023-02-08T01:45:43;86.43;;;37.85;;
23388;SDS011;11867;51.198;11.966;2023-02-08T01:46:45;79.80;;;37.05;;
23388;SDS011;11867;51.198;11.966;2023-02-08T01:47:52;95.88;;;38.80;;
23388;SDS011;11867;51.198;11.966;2023-02-08T01:48:57;88.57;;;38.60;;
23388;SDS011;11867;51.198;11.966;2023-02-08T01:50:03;85.30;;;37.40;;
23388;SDS011;11867;51.198;11.966;2023-02-08T01:51:06;85.20;;;38.85;;
23388;SDS011;11867;51.198;11.966;2023-02-08T01:52:16;91.22;;;40.33;;
23388;SDS011;11867;51.198;11.966;2023-02-08T01:53:21;85.05;;;39.47;;
23388;SDS011;11867;51.198;11.966;2023-02-08T01:54:27;86.22;;;37.05;;
23388;SDS011;11867;51.198;11.966;2023-02-08T01:55:33;84.22;;;37.78;;
23388;SDS011;11867;51.198;11.966;2023-02-08T01:56:40;86.97;;;37.22;;
23388;SDS011;11867;51.198;11.966;2023-02-08T01:57:46;85.97;;;37.97;;
23388;SDS011;11867;51.198;11.966;2023-02-08T01:58:53;90.47;;;39.40;;
23388;SDS011;11867;51.198;11.966;2023-02-08T02:00:02;91.55;;;39.10;;
23388;SDS011;11867;51.198;11.966;2023-02-08T02:01:08;89.20;;;38.85;;
23388;SDS011;11867;51.198;11.966;2023-02-08T02:02:15;82.15;;;37.25;;
23388;SDS011;11867;51.198;11.966;2023-02-08T02:03:21;87.53;;;38.47;;
23388;SDS011;11867;51.198;11.966;2023-02-08T02:04:24;87.85;;;40.47;;
23388;SDS011;11867;51.198;11.966;2023-02-08T02:05:28;89.35;;;38.30;;
23388;SDS011;11867;51.198;11.966;2023-02-08T02:06:35;88.05;;;38.83;;
23388;SDS011;11867;51.198;11.966;2023-02-08T02:07:41;92.05;;;38.72;;
23388;SDS011;11867;51.198;11.966;2023-02-08T02:08:46;84.53;;;38.08;;
23388;SDS011;11867;51.198;11.966;2023-02-08T02:09:55;87.85;;;38.30;;
23388;SDS011;11867;51.198;11.966;2023-02-08T02:11:03;62.53;;;28.58;;
23388;SDS011;11867;51.198;11.966;2023-02-08T02:12:06;79.53;;;37.45;;
23388;SDS011;11867;51.198;11.966;2023-02-08T02:13:10;81.82;;;37.13;;
23388;SDS011;11867;51.198;11.966;2023-02-08T02:14:15;79.63;;;36.47;;
23388;SDS011;11867;51.198;11.966;2023-02-08T02:15:17;74.97;;;35.35;;
23388;SDS011;11867;51.198;11.966;2023-02-08T02:16:20;82.43;;;37.05;;
23388;SDS011;11867;51.198;11.966;2023-02-08T02:17:22;76.18;;;35.38;;
23388;SDS011;11867;51.198;11.966;2023-02-08T02:18:26;85.65;;;38.05;;
23388;SDS011;11867;51.198;11.966;2023-02-08T02:19:31;81.68;;;37.05;;
23388;SDS011;11867;51.198;11.966;2023-02-08T02:20:46;86.63;;;36.65;;
23388;SDS011;11867;51.198;11.966;2023-02-08T02:22:06;79.15;;;37.17;;
23388;SDS011;11867;51.198;11.966;2023-02-08T02:23:30;78.97;;;35.10;;
23388;SDS011;11867;51.198;11.966;2023-02-08T02:25:23;74.25;;;34.40;;
23388;SDS011;11867;51.198;11.966;2023-02-08T02:27:00;67.93;;;34.13;;
23388;SDS011;11867;51.198;11.966;2023-02-08T02:28:27;77.60;;;34.90;;
23388;SDS011;11867;51.198;11.966;2023-02-08T02:29:53;74.93;;;33.75;;
23388;SDS011;11867;51.198;11.966;2023-02-08T02:31:23;76.32;;;35.92;;
23388;SDS011;11867;51.198;11.966;2023-02-08T02:32:37;79.07;;;36.08;;
23388;SDS011;11867;51.198;11.966;2023-02-08T02:33:49;83.63;;;36.00;;
23388;SDS011;11867;51.198;11.966;2023-02-08T02:35:01;81.78;;;35.30;;
23388;SDS011;11867;51.198;11.966;2023-02-08T02:36:10;82.00;;;36.90;;
23388;SDS011;11867;51.198;11.966;2023-02-08T02:37:24;87.10;;;37.80;;
23388;SDS011;11867;51.198;11.966;2023-02-08T02:38:36;77.97;;;37.13;;
23388;SDS011;11867;51.198;11.966;2023-02-08T02:39:49;76.60;;;35.50;;
23388;SDS011;11867;51.198;11.966;2023-02-08T02:40:59;83.22;;;37.50;;
23388;SDS011;11867;51.198;11.966;2023-02-08T02:42:16;75.38;;;34.42;;
23388;SDS011;11867;51.198;11.966;2023-02-08T02:43:46;79.80;;;35.78;;
23388;SDS011;11867;51.198;11.966;2023-02-08T02:44:57;75.47;;;36.10;;
23388;SDS011;11867;51.198;11.966;2023-02-08T02:46:14;78.72;;;35.42;;
23388;SDS011;11867;51.198;11.966;2023-02-08T02:47:25;82.60;;;36.15;;
23388;SDS011;11867;51.198;11.966;2023-02-08T02:48:44;62.28;;;26.05;;
23388;SDS011;11867;51.198;11.966;2023-02-08T02:49:51;77.18;;;35.63;;
23388;SDS011;11867;51.198;11.966;2023-02-08T02:50:59;79.55;;;34.90;;
23388;SDS011;11867;51.198;11.966;2023-02-08T02:52:08;76.05;;;35.20;;
23388;SDS011;11867;51.198;11.966;2023-02-08T02:53:16;78.80;;;36.60;;
23388;SDS011;11867;51.198;11.966;2023-02-08T02:54:25;79.88;;;38.13;;
23388;SDS011;11867;51.198;11.966;2023-02-08T02:55:34;76.28;;;36.80;;
23388;SDS011;11867;51.198;11.966;2023-02-08T02:56:44;80.85;;;34.65;;
23388;SDS011;11867;51.198;11.966;2023-02-08T02:57:50;81.85;;;35.85;;
23388;SDS011;11867;51.198;11.966;2023-02-08T02:58:55;71.82;;;36.05;;
23388;SDS011;11867;51.198;11.966;2023-02-08T03:00:05;79.25;;;35.55;;
23388;SDS011;11867;51.198;11.966;2023-02-08T03:01:08;72.88;;;35.53;;
23388;SDS011;11867;51.198;11.966;2023-02-08T03:02:11;82.95;;;35.72;;
23388;SDS011;11867;51.198;11.966;2023-02-08T03:03:15;79.65;;;35.25;;
23388;SDS011;11867;51.198;11.966;2023-02-08T03:05:50;75.53;;;34.53;;
23388;SDS011;11867;51.198;11.966;2023-02-08T03:06:57;79.60;;;35.50;;
23388;SDS011;11867;51.198;11.966;2023-02-08T03:08:13;80.47;;;35.03;;
23388;SDS011;11867;51.198;11.966;2023-02-08T03:09:36;83.00;;;37.35;;
23388;SDS011;11867;51.198;11.966;2023-02-08T03:10:49;75.53;;;35.10;;
23388;SDS011;11867;51.198;11.966;2023-02-08T03:12:04;81.43;;;37.08;;
23388;SDS011;11867;51.198;11.966;2023-02-08T03:13:20;78.47;;;36.03;;
23388;SDS011;11867;51.198;11.966;2023-02-08T03:14:32;82.57;;;37.50;;
23388;SDS011;11867;51.198;11.966;2023-02-08T03:15:42;81.78;;;37.05;;
23388;SDS011;11867;51.198;11.966;2023-02-08T03:17:10;79.38;;;36.85;;
23388;SDS011;11867;51.198;11.966;2023-02-08T03:18:39;84.80;;;35.42;;
23388;SDS011;11867;51.198;11.966;2023-02-08T03:19:52;74.57;;;34.40;;
23388;SDS011;11867;51.198;11.966;2023-02-08T03:21:07;85.18;;;35.53;;
23388;SDS011;11867;51.198;11.966;2023-02-08T03:22:12;78.32;;;34.60;;
23388;SDS011;11867;51.198;11.966;2023-02-08T03:23:18;83.95;;;34.90;;
23388;SDS011;11867;51.198;11.966;2023-02-08T03:24:26;81.68;;;37.60;;
23388;SDS011;11867;51.198;11.966;2023-02-08T03:25:35;86.95;;;38.25;;
23388;SDS011;11867;51.198;11.966;2023-02-08T03:26:47;84.25;;;37.25;;
23388;SDS011;11867;51.198;11.966;2023-02-08T03:27:55;83.13;;;36.30;;
23388;SDS011;11867;51.198;11.966;2023-02-08T03:29:08;76.30;;;34.85;;
23388;SDS011;11867;51.198;11.966;2023-02-08T03:30:19;79.60;;;35.80;;
23388;SDS011;11867;51.198;11.966;2023-02-08T03:31:29;79.80;;;35.22;;
23388;SDS011;11867;51.198;11.966;2023-02-08T03:32:39;82.60;;;35.85;;
23388;SDS011;11867;51.198;11.966;2023-02-08T03:33:47;87.47;;;37.30;;
23388;SDS011;11867;51.198;11.966;2023-02-08T03:34:54;79.63;;;35.95;;
23388;SDS011;11867;51.198;11.966;2023-02-08T03:36:02;76.40;;;33.75;;
23388;SDS011;11867;51.198;11.966;2023-02-08T03:37:08;92.13;;;37.08;;
23388;SDS011;11867;51.198;11.966;2023-02-08T03:38:16;91.32;;;35.50;;
23388;SDS011;11867;51.198;11.966;2023-02-08T03:39:24;91.50;;;38.95;;
23388;SDS011;11867;51.198;11.966;2023-02-08T03:40:30;89.85;;;36.45;;
23388;SDS011;11867;51.198;11.966;2023-02-08T03:41:38;92.40;;;36.47;;
23388;SDS011;11867;51.198;11.966;2023-02-08T03:42:43;94.50;;;37.55;;
23388;SDS011;11867;51.198;11.966;2023-02-08T03:43:49;89.03;;;39.28;;
23388;SDS011;11867;51.198;11.966;2023-02-08T03:44:56;95.05;;;37.63;;
23388;SDS011;11867;51.198;11.966;2023-02-08T03:46:04;89.47;;;36.33;;
23388;SDS011;11867;51.198;11.966;2023-02-08T03:47:12;83.55;;;36.50;;
23388;SDS011;11867;51.198;11.966;2023-02-08T03:48:21;90.25;;;37.75;;
23388;SDS011;11867;51.198;11.966;2023-02-08T03:49:27;83.10;;;36.28;;
23388;SDS011;11867;51.198;11.966;2023-02-08T03:50:38;89.90;;;36.85;;
23388;SDS011;11867;51.198;11.966;2023-02-08T03:51:43;85.35;;;37.38;;
23388;SDS011;11867;51.198;11.966;2023-02-08T03:52:47;79.25;;;36.22;;
23388;SDS011;11867;51.198;11.966;2023-02-08T03:53:53;80.65;;;36.08;;
23388;SDS011;11867;51.198;11.966;2023-02-08T03:54:59;82.72;;;34.92;;
23388;SDS011;11867;51.198;11.966;2023-02-08T03:56:06;77.63;;;33.08;;
23388;SDS011;11867;51.198;11.966;2023-02-08T03:57:11;79.60;;;36.13;;
23388;SDS011;11867;51.198;11.966;2023-02-08T03:58:21;81.57;;;35.15;;
23388;SDS011;11867;51.198;11.966;2023-02-08T03:59:27;86.70;;;35.90;;
23388;SDS011;11867;51.198;11.966;2023-02-08T04:00:34;78.82;;;34.67;;
23388;SDS011;11867;51.198;11.966;2023-02-08T04:01:41;104.50;;;36.00;;
23388;SDS011;11867;51.198;11.966;2023-02-08T04:02:46;91.32;;;35.78;;
23388;SDS011;11867;51.198;11.966;2023-02-08T04:03:57;79.32;;;35.95;;
23388;SDS011;11867;51.198;11.966;2023-02-08T04:05:02;89.57;;;36.30;;
23388;SDS011;11867;51.198;11.966;2023-02-08T04:06:06;93.85;;;35.88;;
23388;SDS011;11867;51.198;11.966;2023-02-08T04:07:08;83.03;;;34.13;;
23388;SDS011;11867;51.198;11.966;2023-02-08T04:08:11;92.13;;;38.08;;
23388;SDS011;11867;51.198;11.966;2023-02-08T04:09:13;91.28;;;36.28;;
23388;SDS011;11867;51.198;11.966;2023-02-08T04:10:16;84.00;;;35.33;;
23388;SDS011;11867;51.198;11.966;2023-02-08T04:11:18;84.88;;;35.17;;
23388;SDS011;11867;51.198;11.966;2023-02-08T04:12:20;88.03;;;36.80;;
23388;SDS011;11867;51.198;11.966;2023-02-08T04:13:22;84.68;;;36.80;;
23388;SDS011;11867;51.198;11.966;2023-02-08T04:14:25;87.03;;;36.88;;
23388;SDS011;11867;51.198;11.966;2023-02-08T04:15:26;83.50;;;34.45;;
23388;SDS011;11867;51.198;11.966;2023-02-08T04:16:29;84.32;;;36.00;;
23388;SDS011;11867;51.198;11.966;2023-02-08T04:17:31;90.80;;;37.92;;
23388;SDS011;11867;51.198;11.966;2023-02-08T04:18:34;80.55;;;33.90;;
23388;SDS011;11867;51.198;11.966;2023-02-08T04:19:37;83.85;;;36.05;;
23388;SDS011;11867;51.198;11.966;2023-02-08T04:20:41;84.20;;;35.65;;
23388;SDS011;11867;51.198;11.966;2023-02-08T04:21:42;92.05;;;35.85;;
23388;SDS011;11867;51.198;11.966;2023-02-08T04:22:45;101.65;;;35.13;;
23388;SDS011;11867;51.198;11.966;2023-02-08T04:23:47;98.65;;;37.38;;
23388;SDS011;11867;51.198;11.966;2023-02-08T04:24:49;104.97;;;35.90;;
23388;SDS011;11867;51.198;11.966;2023-02-08T04:25:51;95.95;;;37.55;;
23388;SDS011;11867;51.198;11.966;2023-02-08T04:26:57;94.60;;;38.38;;
23388;SDS011;11867;51.198;11.966;2023-02-08T04:27:58;88.15;;;38.47;;
23388;SDS011;11867;51.198;11.966;2023-02-08T04:29:01;101.22;;;38.42;;
23388;SDS011;11867;51.198;11.966;2023-02-08T04:30:03;87.72;;;37.50;;
23388;SDS011;11867;51.198;11.966;2023-02-08T04:31:07;96.65;;;36.45;;
23388;SDS011;11867;51.198;11.966;2023-02-08T04:32:08;107.70;;;38.15;;
23388;SDS011;11867;51.198;11.966;2023-02-08T04:33:12;91.03;;;36.33;;
23388;SDS011;11867;51.198;11.966;2023-02-08T04:34:15;110.05;;;38.80;;
23388;SDS011;11867;51.198;11.966;2023-02-08T04:35:17;89.93;;;37.15;;
23388;SDS011;11867;51.198;11.966;2023-02-08T04:36:20;93.35;;;36.47;;
23388;SDS011;11867;51.198;11.966;2023-02-08T04:37:23;79.75;;;36.78;;
23388;SDS011;11867;51.198;11.966;2023-02-08T04:38:25;88.63;;;37.15;;
23388;SDS011;11867;51.198;11.966;2023-02-08T04:39:27;90.95;;;37.33;;
23388;SDS011;11867;51.198;11.966;2023-02-08T04:40:29;102.68;;;35.35;;
23388;SDS011;11867;51.198;11.966;2023-02-08T04:41:32;83.28;;;34.88;;
23388;SDS011;11867;51.198;11.966;2023-02-08T04:42:34;94.22;;;38.00;;
23388;SDS011;11867;51.198;11.966;2023-02-08T04:43:37;90.00;;;36.72;;
23388;SDS011;11867;51.198;11.966;2023-02-08T04:44:38;97.97;;;39.17;;
23388;SDS011;11867;51.198;11.966;2023-02-08T04:45:41;82.65;;;36.35;;
23388;SDS011;11867;51.198;11.966;2023-02-08T04:46:42;94.80;;;36.53;;
23388;SDS011;11867;51.198;11.966;2023-02-08T04:47:45;88.20;;;35.95;;
23388;SDS011;11867;51.198;11.966;2023-02-08T04:48:47;100.68;;;39.70;;
23388;SDS011;11867;51.198;11.966;2023-02-08T04:49:50;88.80;;;37.08;;
23388;SDS011;11867;51.198;11.966;2023-02-08T04:50:53;98.85;;;37.95;;
23388;SDS011;11867;51.198;11.966;2023-02-08T04:51:57;84.55;;;35.33;;
23388;SDS011;11867;51.198;11.966;2023-02-08T04:52:59;91.78;;;36.33;;
23388;SDS011;11867;51.198;11.966;2023-02-08T04:54:02;85.93;;;35.63;;
23388;SDS011;11867;51.198;11.966;2023-02-08T04:55:03;92.15;;;35.10;;
23388;SDS011;11867;51.198;11.966;2023-02-08T04:56:07;85.72;;;34.90;;
23388;SDS011;11867;51.198;11.966;2023-02-08T04:57:09;81.93;;;35.50;;
23388;SDS011;11867;51.198;11.966;2023-02-08T04:58:13;78.65;;;36.00;;
23388;SDS011;11867;51.198;11.966;2023-02-08T04:59:15;80.00;;;35.20;;
23388;SDS011;11867;51.198;11.966;2023-02-08T05:00:18;93.95;;;34.22;;
23388;SDS011;11867;51.198;11.966;2023-02-08T05:01:20;95.00;;;36.25;;
23388;SDS011;11867;51.198;11.966;2023-02-08T05:02:22;85.78;;;36.45;;
23388;SDS011;11867;51.198;11.966;2023-02-08T05:03:24;84.68;;;34.78;;
23388;SDS011;11867;51.198;11.966;2023-02-08T05:04:27;93.22;;;36.00;;
23388;SDS011;11867;51.198;11.966;2023-02-08T05:05:28;86.47;;;34.28;;
23388;SDS011;11867;51.198;11.966;2023-02-08T05:06:32;84.10;;;35.30;;
23388;SDS011;11867;51.198;11.966;2023-02-08T05:07:35;83.93;;;34.92;;
23388;SDS011;11867;51.198;11.966;2023-02-08T05:08:38;89.05;;;35.00;;
23388;SDS011;11867;51.198;11.966;2023-02-08T05:09:39;83.18;;;35.45;;
23388;SDS011;11867;51.198;11.966;2023-02-08T05:10:43;86.75;;;35.00;;
23388;SDS011;11867;51.198;11.966;2023-02-08T05:11:45;87.25;;;36.20;;
23388;SDS011;11867;51.198;11.966;2023-02-08T05:12:48;86.72;;;35.15;;
23388;SDS011;11867;51.198;11.966;2023-02-08T05:13:49;84.55;;;35.17;;
23388;SDS011;11867;51.198;11.966;2023-02-08T05:14:52;88.97;;;36.05;;
23388;SDS011;11867;51.198;11.966;2023-02-08T05:15:54;90.28;;;35.22;;
23388;SDS011;11867;51.198;11.966;2023-02-08T05:16:57;81.90;;;34.60;;
23388;SDS011;11867;51.198;11.966;2023-02-08T05:17:58;87.57;;;36.63;;
23388;SDS011;11867;51.198;11.966;2023-02-08T05:19:04;80.30;;;35.60;;
23388;SDS011;11867;51.198;11.966;2023-02-08T05:20:07;79.38;;;35.60;;
23388;SDS011;11867;51.198;11.966;2023-02-08T05:21:10;77.75;;;33.63;;
23388;SDS011;11867;51.198;11.966;2023-02-08T05:22:13;86.07;;;35.17;;
23388;SDS011;11867;51.198;11.966;2023-02-08T05:23:16;79.63;;;34.10;;
23388;SDS011;11867;51.198;11.966;2023-02-08T05:24:18;83.43;;;34.25;;
23388;SDS011;11867;51.198;11.966;2023-02-08T05:25:20;72.63;;;32.40;;
23388;SDS011;11867;51.198;11.966;2023-02-08T05:26:23;68.82;;;32.92;;
23388;SDS011;11867;51.198;11.966;2023-02-08T05:27:25;70.03;;;32.00;;
23388;SDS011;11867;51.198;11.966;2023-02-08T05:28:27;65.90;;;31.63;;
23388;SDS011;11867;51.198;11.966;2023-02-08T05:29:30;76.22;;;34.60;;
23388;SDS011;11867;51.198;11.966;2023-02-08T05:30:33;68.20;;;32.58;;
23388;SDS011;11867;51.198;11.966;2023-02-08T05:31:35;65.90;;;30.38;;
23388;SDS011;11867;51.198;11.966;2023-02-08T05:32:38;69.45;;;32.33;;
23388;SDS011;11867;51.198;11.966;2023-02-08T05:33:40;64.80;;;32.38;;
23388;SDS011;11867;51.198;11.966;2023-02-08T05:34:42;64.63;;;31.38;;
23388;SDS011;11867;51.198;11.966;2023-02-08T05:35:44;70.88;;;31.77;;
23388;SDS011;11867;51.198;11.966;2023-02-08T05:36:47;63.92;;;31.48;;
23388;SDS011;11867;51.198;11.966;2023-02-08T05:37:49;59.63;;;30.55;;
23388;SDS011;11867;51.198;11.966;2023-02-08T05:38:53;72.72;;;32.45;;
23388;SDS011;11867;51.198;11.966;2023-02-08T05:39:54;65.22;;;31.80;;
23388;SDS011;11867;51.198;11.966;2023-02-08T05:40:57;71.32;;;32.63;;
23388;SDS011;11867;51.198;11.966;2023-02-08T05:42:02;66.30;;;31.25;;
23388;SDS011;11867;51.198;11.966;2023-02-08T05:43:04;65.25;;;31.55;;
23388;SDS011;11867;51.198;11.966;2023-02-08T05:44:06;66.88;;;30.67;;
23388;SDS011;11867;51.198;11.966;2023-02-08T05:45:09;63.55;;;31.25;;
23388;SDS011;11867;51.198;11.966;2023-02-08T05:46:10;69.72;;;33.20;;
23388;SDS011;11867;51.198;11.966;2023-02-08T05:47:13;72.55;;;32.67;;
23388;SDS011;11867;51.198;11.966;2023-02-08T05:48:18;72.65;;;33.28;;
23388;SDS011;11867;51.198;11.966;2023-02-08T05:49:20;70.28;;;32.45;;
23388;SDS011;11867;51.198;11.966;2023-02-08T05:50:23;75.30;;;33.83;;
23388;SDS011;11867;51.198;11.966;2023-02-08T05:51:25;70.82;;;33.67;;
23388;SDS011;11867;51.198;11.966;2023-02-08T05:52:28;74.28;;;33.67;;
23388;SDS011;11867;51.198;11.966;2023-02-08T05:53:29;71.15;;;33.85;;
23388;SDS011;11867;51.198;11.966;2023-02-08T05:54:33;71.15;;;33.95;;
23388;SDS011;11867;51.198;11.966;2023-02-08T05:55:35;70.57;;;33.50;;
23388;SDS011;11867;51.198;11.966;2023-02-08T05:56:38;72.32;;;33.90;;
23388;SDS011;11867;51.198;11.966;2023-02-08T05:57:40;73.30;;;33.95;;
23388;SDS011;11867;51.198;11.966;2023-02-08T05:58:42;64.38;;;31.13;;
23388;SDS011;11867;51.198;11.966;2023-02-08T05:59:44;69.65;;;33.63;;
23388;SDS011;11867;51.198;11.966;2023-02-08T06:00:46;70.78;;;32.42;;
23388;SDS011;11867;51.198;11.966;2023-02-08T06:01:48;70.45;;;32.97;;
23388;SDS011;11867;51.198;11.966;2023-02-08T06:02:51;72.65;;;34.47;;
23388;SDS011;11867;51.198;11.966;2023-02-08T06:03:53;69.60;;;33.00;;
23388;SDS011;11867;51.198;11.966;2023-02-08T06:04:55;76.32;;;33.75;;
23388;SDS011;11867;51.198;11.966;2023-02-08T06:05:58;69.72;;;33.65;;
23388;SDS011;11867;51.198;11.966;2023-02-08T06:07:01;75.20;;;34.63;;
23388;SDS011;11867;51.198;11.966;2023-02-08T06:08:03;68.60;;;32.03;;
23388;SDS011;11867;51.198;11.966;2023-02-08T06:09:06;68.40;;;32.08;;
23388;SDS011;11867;51.198;11.966;2023-02-08T06:10:10;73.47;;;34.25;;
23388;SDS011;11867;51.198;11.966;2023-02-08T06:11:11;76.45;;;34.28;;
23388;SDS011;11867;51.198;11.966;2023-02-08T06:12:14;72.70;;;34.47;;
23388;SDS011;11867;51.198;11.966;2023-02-08T06:13:16;70.22;;;33.55;;
23388;SDS011;11867;51.198;11.966;2023-02-08T06:14:18;69.80;;;33.63;;
23388;SDS011;11867;51.198;11.966;2023-02-08T06:15:20;81.68;;;34.92;;
23388;SDS011;11867;51.198;11.966;2023-02-08T06:16:23;76.97;;;34.60;;
23388;SDS011;11867;51.198;11.966;2023-02-08T06:17:28;76.07;;;32.92;;
23388;SDS011;11867;51.198;11.966;2023-02-08T06:18:30;77.07;;;34.95;;